Time;durP1;ratioP1;P1;durP2;ratioP2;P2;SDS_P1;SDS_P2;PMS_P1;PMS_P2;Temp;Humidity;BMP_temperature;BMP_pressure;BME280_temperature;BME280_humidity;BME280_pressure;Samples;Min_cycle;Max_cycle;Signal;HPM_P1;HPM_P2
2022/11/18 00:01:51;;;;;;;27.15;22.33;;;;;;;;;;5033179;28;20056;-91
2022/11/18 00:04:17;;;;;;;29.77;23.73;;;;;;;;;;5029445;28;20574;-89
2022/11/18 00:06:43;;;;;;;29.88;23.30;;;;;;;;;;5035476;28;20048;-89
2022/11/18 00:09:09;;;;;;;30.85;23.05;;;;;;;;;;5038072;28;20045;-90
2022/11/18 00:14:22;;;;;;;30.58;22.90;;;;;;;;;;5019142;28;20057;-89
2022/11/18 00:17:00;;;;;;;31.27;25.05;;;;;;;;;;5036753;28;20044;-89
2022/11/18 00:19:28;;;;;;;30.52;23.88;;;;;;;;;;5011716;28;20073;-89
2022/11/18 00:21:54;;;;;;;29.05;23.92;;;;;;;;;;5037952;28;20048;-87
2022/11/18 00:24:20;;;;;;;32.88;24.50;;;;;;;;;;5023543;28;20124;-88
2022/11/18 00:26:46;;;;;;;31.52;24.67;;;;;;;;;;5040781;28;20045;-90
2022/11/18 00:29:13;;;;;;;30.50;25.63;;;;;;;;;;5038492;28;20041;-88
2022/11/18 00:31:39;;;;;;;31.90;25.73;;;;;;;;;;5042660;28;20041;-90
2022/11/18 00:34:05;;;;;;;32.10;25.30;;;;;;;;;;5040781;28;20069;-90
2022/11/18 00:36:31;;;;;;;32.78;24.95;;;;;;;;;;5022354;28;20504;-91
2022/11/18 00:38:58;;;;;;;31.83;25.25;;;;;;;;;;5023044;28;20513;-88
2022/11/18 00:42:49;;;;;;;31.52;26.40;;;;;;;;;;5036275;28;20053;-89
2022/11/18 00:44:10;;;;;;;31.70;24.48;;;;;;;;;;5035576;28;20056;-89
2022/11/18 00:46:36;;;;;;;34.63;24.95;;;;;;;;;;5033135;28;20547;-90
2022/11/18 00:49:02;;;;;;;32.25;26.10;;;;;;;;;;5030955;28;20501;-89
2022/11/18 00:51:28;;;;;;;32.55;24.98;;;;;;;;;;5029591;28;20048;-89
2022/11/18 00:53:54;;;;;;;33.22;26.23;;;;;;;;;;5032174;28;20046;-90
2022/11/18 00:56:20;;;;;;;32.95;26.70;;;;;;;;;;5029360;28;20037;-89
2022/11/18 00:58:46;;;;;;;34.55;23.83;;;;;;;;;;5032418;28;20042;-91
2022/11/18 01:01:12;;;;;;;33.20;24.50;;;;;;;;;;5036030;28;20041;-91
2022/11/18 01:03:38;;;;;;;32.75;25.33;;;;;;;;;;5033456;28;20053;-90
2022/11/18 01:06:04;;;;;;;35.28;25.20;;;;;;;;;;5032147;28;20559;-90
2022/11/18 01:08:30;;;;;;;33.80;25.58;;;;;;;;;;5033760;28;20444;-90
2022/11/18 01:13:17;;;;;;;34.55;26.10;;;;;;;;;;5031562;28;20068;-90
2022/11/18 01:13:42;;;;;;;30.60;24.35;;;;;;;;;;5018540;28;20064;-89
2022/11/18 01:16:08;;;;;;;32.35;24.42;;;;;;;;;;5029887;28;20095;-90
2022/11/18 01:18:34;;;;;;;33.47;24.60;;;;;;;;;;5031546;28;20060;-88
2022/11/18 01:21:01;;;;;;;29.77;24.42;;;;;;;;;;5041041;28;20037;-89
2022/11/18 01:23:27;;;;;;;32.05;24.13;;;;;;;;;;5034391;28;20052;-89
2022/11/18 01:25:53;;;;;;;29.90;23.38;;;;;;;;;;5047789;28;20063;-89
2022/11/18 01:28:20;;;;;;;31.35;24.30;;;;;;;;;;5012568;28;20045;-89
2022/11/18 01:30:46;;;;;;;33.10;24.52;;;;;;;;;;5034635;28;20492;-89
2022/11/18 01:33:12;;;;;;;30.58;24.13;;;;;;;;;;5029463;28;20424;-89
2022/11/18 01:35:39;;;;;;;30.52;24.38;;;;;;;;;;5026080;28;20057;-89
2022/11/18 01:38:06;;;;;;;28.75;22.17;;;;;;;;;;5026845;28;20049;-89
2022/11/18 01:40:32;;;;;;;32.08;24.65;;;;;;;;;;5028036;28;20041;-89
2022/11/18 01:42:58;;;;;;;32.72;25.00;;;;;;;;;;4997335;28;20063;-89
2022/11/18 01:45:35;;;;;;;29.70;22.88;;;;;;;;;;5031265;28;20041;-89
2022/11/18 01:48:07;;;;;;;32.10;23.83;;;;;;;;;;5028585;28;20050;-89
2022/11/18 01:50:35;;;;;;;31.40;23.85;;;;;;;;;;5012215;28;20048;-89
2022/11/18 01:53:05;;;;;;;33.72;23.50;;;;;;;;;;5014623;28;20053;-89
2022/11/18 01:55:33;;;;;;;33.38;23.17;;;;;;;;;;5030453;28;20046;-89
2022/11/18 01:58:12;;;;;;;36.08;24.83;;;;;;;;;;5010176;28;20120;-90
2022/11/18 02:00:39;;;;;;;34.40;23.38;;;;;;;;;;5029618;28;20048;-87
2022/11/18 02:03:05;;;;;;;31.40;24.02;;;;;;;;;;5013403;28;20056;-88
2022/11/18 02:05:32;;;;;;;35.55;24.33;;;;;;;;;;5028290;28;20053;-88
2022/11/18 02:07:59;;;;;;;32.00;23.58;;;;;;;;;;5009643;28;20492;-89
2022/11/18 02:10:25;;;;;;;34.25;24.95;;;;;;;;;;5026348;28;20508;-88
2022/11/18 02:12:52;;;;;;;34.50;23.90;;;;;;;;;;5007130;28;20045;-88
2022/11/18 02:15:23;;;;;;;33.17;24.70;;;;;;;;;;5028344;28;20045;-90
2022/11/18 02:18:17;;;;;;;33.38;24.27;;;;;;;;;;5026563;28;20136;-89
2022/11/18 02:20:45;;;;;;;34.95;24.58;;;;;;;;;;5005654;28;20052;-89
2022/11/18 02:23:21;;;;;;;33.75;24.45;;;;;;;;;;5010802;28;20049;-89
2022/11/18 02:26:22;;;;;;;33.55;25.25;;;;;;;;;;5031813;28;20071;-89
2022/11/18 02:29:00;;;;;;;32.88;25.48;;;;;;;;;;4967963;28;20049;-89
2022/11/18 02:31:53;;;;;;;34.63;25.17;;;;;;;;;;4965523;28;20134;-89
2022/11/18 02:34:30;;;;;;;36.78;25.90;;;;;;;;;;4965055;28;20124;-89
2022/11/18 02:37:02;;;;;;;36.15;26.40;;;;;;;;;;4967922;28;20059;-88
2022/11/18 02:39:34;;;;;;;38.53;26.25;;;;;;;;;;4966775;28;20133;-89
2022/11/18 02:42:03;;;;;;;34.85;25.15;;;;;;;;;;4967974;28;20493;-89
2022/11/18 02:44:30;;;;;;;34.78;26.92;;;;;;;;;;4950013;28;20055;-89
2022/11/18 02:47:03;;;;;;;38.53;26.77;;;;;;;;;;4968487;28;20101;-89
2022/11/18 02:49:36;;;;;;;34.78;26.83;;;;;;;;;;4967136;28;20057;-88
2022/11/18 02:52:04;;;;;;;35.65;26.23;;;;;;;;;;4952046;28;20054;-89
2022/11/18 02:54:32;;;;;;;33.97;25.92;;;;;;;;;;4967697;28;20050;-88
2022/11/18 02:56:58;;;;;;;38.03;27.42;;;;;;;;;;4968683;28;20518;-88
2022/11/18 02:59:27;;;;;;;37.60;26.13;;;;;;;;;;4966098;28;20050;-88
2022/11/18 03:01:53;;;;;;;34.83;26.35;;;;;;;;;;4973937;28;20501;-89
2022/11/18 03:04:20;;;;;;;34.00;27.48;;;;;;;;;;5026096;28;20522;-89
2022/11/18 03:06:55;;;;;;;37.25;26.27;;;;;;;;;;5025340;28;20155;-89
2022/11/18 03:09:29;;;;;;;35.85;27.00;;;;;;;;;;5027392;28;20045;-88
2022/11/18 03:12:07;;;;;;;34.92;26.15;;;;;;;;;;5027733;28;20041;-87
2022/11/18 03:14:52;;;;;;;32.75;25.35;;;;;;;;;;5026111;28;20049;-89
2022/11/18 03:17:18;;;;;;;31.33;24.67;;;;;;;;;;5026981;28;20064;-88
2022/11/18 03:20:03;;;;;;;31.65;24.90;;;;;;;;;;5026395;28;20051;-89
2022/11/18 03:22:41;;;;;;;29.55;23.38;;;;;;;;;;5008285;28;20049;-89
2022/11/18 03:25:13;;;;;;;32.00;23.80;;;;;;;;;;5025964;28;20989;-88
2022/11/18 03:28:00;;;;;;;31.00;22.85;;;;;;;;;;5023573;28;20037;-89
2022/11/18 03:30:26;;;;;;;32.13;23.60;;;;;;;;;;5009079;28;20610;-89
2022/11/18 03:33:01;;;;;;;30.60;23.98;;;;;;;;;;5023387;28;20038;-88
2022/11/18 03:35:29;;;;;;;33.33;23.75;;;;;;;;;;5024169;28;20067;-88
2022/11/18 03:37:59;;;;;;;28.23;22.08;;;;;;;;;;5006282;28;20613;-86
2022/11/18 03:40:28;;;;;;;30.75;22.58;;;;;;;;;;5022903;28;20041;-88
2022/11/18 03:43:00;;;;;;;29.40;22.88;;;;;;;;;;5024234;28;20505;-88
2022/11/18 03:45:28;;;;;;;32.08;23.50;;;;;;;;;;5029324;28;20049;-87
2022/11/18 03:47:57;;;;;;;28.85;22.33;;;;;;;;;;5050568;28;20822;-88
2022/11/18 03:50:32;;;;;;;30.30;23.15;;;;;;;;;;5047053;28;20047;-88
2022/11/18 03:53:00;;;;;;;29.77;21.88;;;;;;;;;;5024983;28;20046;-88
2022/11/18 03:55:29;;;;;;;28.95;22.13;;;;;;;;;;5007279;28;20492;-88
2022/11/18 03:58:12;;;;;;;31.42;22.15;;;;;;;;;;4991524;28;20100;-88
2022/11/18 04:00:41;;;;;;;29.50;21.42;;;;;;;;;;5024783;28;20045;-88
2022/11/18 04:03:07;;;;;;;27.30;21.48;;;;;;;;;;5021857;28;20092;-88
2022/11/18 04:05:36;;;;;;;29.27;22.17;;;;;;;;;;5025081;28;20049;-88
2022/11/18 04:08:04;;;;;;;31.73;22.85;;;;;;;;;;5024292;28;20060;-88
2022/11/18 04:10:33;;;;;;;31.52;23.70;;;;;;;;;;5022589;28;20041;-88
2022/11/18 04:13:07;;;;;;;31.48;23.98;;;;;;;;;;5026154;28;20063;-88
2022/11/18 04:15:36;;;;;;;33.22;23.00;;;;;;;;;;5022692;28;20135;-88
2022/11/18 04:18:02;;;;;;;32.17;23.55;;;;;;;;;;5024619;28;20742;-88
2022/11/18 04:20:30;;;;;;;31.60;22.88;;;;;;;;;;5029550;28;20052;-88
2022/11/18 04:22:56;;;;;;;31.42;22.05;;;;;;;;;;5027959;28;20096;-88
2022/11/18 04:25:23;;;;;;;33.20;22.58;;;;;;;;;;5028441;28;20041;-88
2022/11/18 04:27:49;;;;;;;27.95;21.73;;;;;;;;;;5011137;28;20041;-88
2022/11/18 04:30:16;;;;;;;37.13;24.17;;;;;;;;;;5026746;28;20053;-88
2022/11/18 04:32:42;;;;;;;33.88;23.83;;;;;;;;;;5030379;28;20455;-88
2022/11/18 04:35:08;;;;;;;33.28;22.55;;;;;;;;;;5027483;28;20559;-87
2022/11/18 04:37:34;;;;;;;30.38;21.35;;;;;;;;;;5009919;28;20492;-85
2022/11/18 04:40:00;;;;;;;35.47;22.35;;;;;;;;;;5028264;28;20045;-88
2022/11/18 04:42:26;;;;;;;37.13;24.52;;;;;;;;;;5027729;28;20045;-88
2022/11/18 04:44:53;;;;;;;32.97;23.10;;;;;;;;;;4995384;28;20056;-88
2022/11/18 04:47:19;;;;;;;36.22;24.00;;;;;;;;;;5009344;28;20128;-88
2022/11/18 04:49:45;;;;;;;36.58;22.90;;;;;;;;;;5029074;28;20046;-88
2022/11/18 04:52:11;;;;;;;37.05;23.25;;;;;;;;;;5010969;28;20072;-88
2022/11/18 04:54:37;;;;;;;37.60;25.23;;;;;;;;;;5027497;28;20046;-87
2022/11/18 04:57:03;;;;;;;33.28;24.02;;;;;;;;;;5010330;28;20057;-88
2022/11/18 04:59:29;;;;;;;39.38;24.88;;;;;;;;;;5027670;28;20052;-87
2022/11/18 05:01:56;;;;;;;39.45;24.30;;;;;;;;;;5030248;28;20041;-88
2022/11/18 05:04:24;;;;;;;33.50;23.00;;;;;;;;;;5027096;28;20068;-87
2022/11/18 05:06:50;;;;;;;33.78;23.15;;;;;;;;;;5026414;28;20041;-85
2022/11/18 05:09:17;;;;;;;36.45;23.95;;;;;;;;;;5027679;28;20416;-87
2022/11/18 05:14:28;;;;;;;32.63;21.58;;;;;;;;;;5028261;28;20071;-85
2022/11/18 05:16:55;;;;;;;36.42;24.15;;;;;;;;;;5026671;28;20048;-86
2022/11/18 05:19:21;;;;;;;34.25;23.27;;;;;;;;;;5027918;28;20092;-87
2022/11/18 05:21:47;;;;;;;33.70;22.65;;;;;;;;;;5027422;28;20045;-87
2022/11/18 05:24:13;;;;;;;36.92;24.13;;;;;;;;;;5027618;28;20099;-87
2022/11/18 05:26:39;;;;;;;36.30;23.60;;;;;;;;;;5024337;28;20041;-86
2022/11/18 05:29:05;;;;;;;36.63;23.95;;;;;;;;;;5026130;28;20049;-88
2022/11/18 05:31:32;;;;;;;35.95;23.73;;;;;;;;;;5029392;28;20079;-87
2022/11/18 05:33:58;;;;;;;37.10;23.92;;;;;;;;;;5028396;28;20493;-87
2022/11/18 05:36:24;;;;;;;36.75;23.58;;;;;;;;;;5010795;28;20052;-87
2022/11/18 05:38:50;;;;;;;37.17;23.77;;;;;;;;;;5024635;28;20377;-87
2022/11/18 05:44:02;;;;;;;42.58;24.63;;;;;;;;;;5026758;28;20045;-87
2022/11/18 05:46:28;;;;;;;40.50;23.85;;;;;;;;;;5027616;28;20044;-87
2022/11/18 05:48:54;;;;;;;39.60;24.50;;;;;;;;;;5026294;28;20049;-87
2022/11/18 05:51:21;;;;;;;39.15;24.50;;;;;;;;;;5027766;28;20042;-88
2022/11/18 05:53:51;;;;;;;39.70;24.58;;;;;;;;;;5006528;28;20045;-86
2022/11/18 05:56:17;;;;;;;42.37;24.07;;;;;;;;;;5026194;28;20132;-87
2022/11/18 05:58:43;;;;;;;37.10;25.00;;;;;;;;;;5009818;28;20053;-86
2022/11/18 06:01:10;;;;;;;35.78;22.75;;;;;;;;;;5008176;28;20049;-86
2022/11/18 06:03:37;;;;;;;37.25;23.75;;;;;;;;;;5023106;28;20037;-86
2022/11/18 06:06:04;;;;;;;36.13;23.52;;;;;;;;;;5011371;28;20496;-86
2022/11/18 06:08:32;;;;;;;39.47;23.27;;;;;;;;;;5029833;28;20516;-85
2022/11/18 06:10:59;;;;;;;39.92;24.15;;;;;;;;;;5030897;28;20069;-85
2022/11/18 06:13:28;;;;;;;38.40;24.30;;;;;;;;;;5044562;28;20045;-86
2022/11/18 06:15:54;;;;;;;44.72;24.25;;;;;;;;;;5023756;28;20053;-86
2022/11/18 06:18:22;;;;;;;38.45;22.95;;;;;;;;;;5007753;28;20062;-85
2022/11/18 06:20:49;;;;;;;36.08;22.85;;;;;;;;;;5026757;28;20065;-86
2022/11/18 06:23:15;;;;;;;41.28;24.13;;;;;;;;;;5009053;28;20053;-86
2022/11/18 06:25:41;;;;;;;34.75;22.50;;;;;;;;;;5022965;28;20042;-86
2022/11/18 06:28:09;;;;;;;35.08;22.77;;;;;;;;;;5024493;28;20037;-86
2022/11/18 06:30:35;;;;;;;35.60;22.40;;;;;;;;;;5009377;28;20433;-85
2022/11/18 06:33:01;;;;;;;34.47;21.10;;;;;;;;;;5023465;28;20072;-84
2022/11/18 06:35:27;;;;;;;35.70;22.52;;;;;;;;;;5010265;28;20393;-85
2022/11/18 06:37:53;;;;;;;35.45;22.00;;;;;;;;;;5026655;28;20523;-86
2022/11/18 06:40:19;;;;;;;35.25;22.33;;;;;;;;;;5025227;28;20511;-87
2022/11/18 06:45:30;;;;;;;34.55;21.85;;;;;;;;;;5010766;28;20053;-87
2022/11/18 06:47:57;;;;;;;35.40;21.58;;;;;;;;;;5032784;28;20045;-87
2022/11/18 06:50:23;;;;;;;35.38;21.42;;;;;;;;;;5031267;28;20526;-87
2022/11/18 06:52:49;;;;;;;35.38;21.83;;;;;;;;;;5014501;28;20053;-88
2022/11/18 06:55:16;;;;;;;35.58;21.65;;;;;;;;;;5027244;28;20053;-88
2022/11/18 06:57:42;;;;;;;36.05;21.83;;;;;;;;;;5033031;28;20049;-88
2022/11/18 07:00:08;;;;;;;32.65;21.40;;;;;;;;;;5015299;28;20045;-88
2022/11/18 07:02:37;;;;;;;38.67;22.55;;;;;;;;;;5033514;28;20045;-87
2022/11/18 07:05:04;;;;;;;30.48;19.15;;;;;;;;;;5030958;28;20135;-85
2022/11/18 07:07:30;;;;;;;30.25;19.48;;;;;;;;;;5015571;28;20557;-87
2022/11/18 07:09:56;;;;;;;25.98;18.05;;;;;;;;;;5033621;28;20531;-86
2022/11/18 07:12:22;;;;;;;29.70;19.27;;;;;;;;;;5030344;28;20045;-86
2022/11/18 07:14:48;;;;;;;29.85;18.98;;;;;;;;;;5032032;28;20045;-86
2022/11/18 07:17:14;;;;;;;30.67;19.50;;;;;;;;;;5030475;28;21231;-85
2022/11/18 07:19:40;;;;;;;30.80;18.85;;;;;;;;;;5032616;28;20049;-86
2022/11/18 07:22:06;;;;;;;31.42;18.73;;;;;;;;;;5032397;28;20046;-85
2022/11/18 07:24:33;;;;;;;26.30;17.17;;;;;;;;;;5030534;28;20049;-86
2022/11/18 07:26:59;;;;;;;23.70;15.13;;;;;;;;;;5030832;28;20041;-86
2022/11/18 07:29:25;;;;;;;20.05;13.98;;;;;;;;;;5025451;28;20048;-85
2022/11/18 07:31:51;;;;;;;20.70;14.63;;;;;;;;;;5025425;28;20049;-85
2022/11/18 07:34:17;;;;;;;20.15;13.40;;;;;;;;;;5030799;28;20057;-85
2022/11/18 07:36:43;;;;;;;20.50;14.20;;;;;;;;;;5013133;28;20068;-85
2022/11/18 07:39:09;;;;;;;19.08;13.25;;;;;;;;;;5012919;28;20041;-85
2022/11/18 07:41:35;;;;;;;20.98;13.60;;;;;;;;;;5013626;28;20133;-85
2022/11/18 07:44:03;;;;;;;18.63;14.18;;;;;;;;;;5030512;28;20046;-85
2022/11/18 07:46:33;;;;;;;24.05;14.95;;;;;;;;;;5030849;28;20094;-85
2022/11/18 07:49:00;;;;;;;21.70;15.87;;;;;;;;;;5011763;28;20400;-85
2022/11/18 07:51:31;;;;;;;25.80;14.95;;;;;;;;;;5032057;28;20033;-85
2022/11/18 07:53:57;;;;;;;21.58;15.48;;;;;;;;;;5035943;28;20057;-85
2022/11/18 07:56:24;;;;;;;24.67;14.95;;;;;;;;;;5034361;28;20045;-85
2022/11/18 07:58:54;;;;;;;20.58;15.25;;;;;;;;;;5034454;28;20053;-85
2022/11/18 08:01:21;;;;;;;21.77;15.18;;;;;;;;;;4996883;28;20041;-84
2022/11/18 08:03:48;;;;;;;21.38;14.10;;;;;;;;;;5026260;28;20072;-84
2022/11/18 08:06:15;;;;;;;21.67;16.55;;;;;;;;;;5031195;28;20043;-84
2022/11/18 08:08:42;;;;;;;24.52;16.10;;;;;;;;;;5035739;28;20421;-85
2022/11/18 08:11:09;;;;;;;25.13;16.13;;;;;;;;;;5036455;28;20046;-85
2022/11/18 08:13:35;;;;;;;25.60;17.73;;;;;;;;;;5035639;28;20042;-84
2022/11/18 08:16:02;;;;;;;27.63;18.25;;;;;;;;;;5036518;28;20052;-85
2022/11/18 08:18:29;;;;;;;27.00;18.48;;;;;;;;;;5011046;28;20058;-85
2022/11/18 08:20:55;;;;;;;25.45;17.67;;;;;;;;;;5034016;28;20512;-85
2022/11/18 08:23:21;;;;;;;29.20;18.88;;;;;;;;;;5035286;28;20118;-85
2022/11/18 08:25:47;;;;;;;27.73;18.20;;;;;;;;;;5036261;28;20096;-84
2022/11/18 08:28:14;;;;;;;33.38;19.15;;;;;;;;;;5035596;28;20045;-85
2022/11/18 08:30:40;;;;;;;26.98;17.85;;;;;;;;;;5036257;28;20041;-86
2022/11/18 08:33:06;;;;;;;24.15;17.98;;;;;;;;;;5036707;28;20049;-84
2022/11/18 08:35:32;;;;;;;28.13;18.77;;;;;;;;;;5040443;28;20110;-85
2022/11/18 08:37:59;;;;;;;28.73;17.65;;;;;;;;;;5042292;28;20044;-85
2022/11/18 08:40:25;;;;;;;26.00;18.73;;;;;;;;;;5036023;28;20046;-85
2022/11/18 08:42:52;;;;;;;27.33;19.13;;;;;;;;;;5033184;28;20090;-84
2022/11/18 08:45:18;;;;;;;26.25;18.05;;;;;;;;;;5000847;28;20511;-85
2022/11/18 08:47:44;;;;;;;27.75;16.98;;;;;;;;;;5032410;28;20060;-84
2022/11/18 08:50:10;;;;;;;27.73;17.67;;;;;;;;;;5016252;28;20093;-85
2022/11/18 08:52:37;;;;;;;28.08;17.63;;;;;;;;;;5035385;28;20156;-85
2022/11/18 08:55:03;;;;;;;32.83;18.20;;;;;;;;;;5034854;28;20044;-84
2022/11/18 08:57:29;;;;;;;26.00;18.10;;;;;;;;;;5034819;28;20041;-84
2022/11/18 08:59:55;;;;;;;26.05;18.40;;;;;;;;;;5034838;28;20481;-84
2022/11/18 09:02:22;;;;;;;27.08;18.85;;;;;;;;;;5035484;28;20133;-84
2022/11/18 09:04:49;;;;;;;24.23;18.42;;;;;;;;;;5031568;28;20049;-84
2022/11/18 09:07:15;;;;;;;27.85;18.30;;;;;;;;;;5032681;28;20046;-84
2022/11/18 09:09:41;;;;;;;24.67;18.42;;;;;;;;;;5032750;28;20111;-85
2022/11/18 09:12:08;;;;;;;34.83;18.75;;;;;;;;;;5035154;28;20033;-84
2022/11/18 09:14:34;;;;;;;26.92;17.92;;;;;;;;;;5033815;28;20566;-84
2022/11/18 09:17:00;;;;;;;24.85;14.80;;;;;;;;;;5005753;28;20380;-84
2022/11/18 09:19:26;;;;;;;26.00;18.42;;;;;;;;;;5033078;28;20041;-83
2022/11/18 09:21:52;;;;;;;25.23;18.55;;;;;;;;;;5030651;28;20042;-85
2022/11/18 09:24:18;;;;;;;30.35;19.25;;;;;;;;;;5031917;28;20168;-84
2022/11/18 09:26:45;;;;;;;27.52;17.02;;;;;;;;;;5030841;28;20053;-83
2022/11/18 09:29:11;;;;;;;26.67;18.45;;;;;;;;;;5033127;28;20332;-85
2022/11/18 09:31:37;;;;;;;25.30;18.92;;;;;;;;;;5032036;28;20046;-84
2022/11/18 09:34:04;;;;;;;26.55;18.42;;;;;;;;;;5026993;28;20037;-84
2022/11/18 09:36:30;;;;;;;26.13;18.90;;;;;;;;;;5034505;28;20049;-83
2022/11/18 09:38:58;;;;;;;29.25;18.75;;;;;;;;;;5032479;28;20468;-83
2022/11/18 09:41:44;;;;;;;27.85;18.48;;;;;;;;;;5033679;28;20091;-83
2022/11/18 09:44:29;;;;;;;27.90;19.67;;;;;;;;;;5011113;28;20038;-84
2022/11/18 09:46:58;;;;;;;27.77;20.05;;;;;;;;;;5031636;28;20064;-83
2022/11/18 09:49:29;;;;;;;27.30;20.33;;;;;;;;;;5029647;28;20060;-83
2022/11/18 09:51:56;;;;;;;32.95;19.52;;;;;;;;;;5031353;28;20045;-84
2022/11/18 09:54:27;;;;;;;26.48;19.80;;;;;;;;;;5030575;28;20099;-84
2022/11/18 09:56:54;;;;;;;27.80;19.02;;;;;;;;;;5032087;28;20041;-83
2022/11/18 09:59:22;;;;;;;27.65;18.90;;;;;;;;;;5032071;28;20057;-83
2022/11/18 10:01:49;;;;;;;25.75;18.55;;;;;;;;;;5029920;28;20049;-84
2022/11/18 10:04:16;;;;;;;25.63;18.15;;;;;;;;;;5010594;28;20045;-83
2022/11/18 10:06:43;;;;;;;26.35;18.52;;;;;;;;;;5032630;28;20034;-83
2022/11/18 10:09:27;;;;;;;27.42;18.40;;;;;;;;;;5011867;28;20054;-84
2022/11/18 10:11:59;;;;;;;27.83;19.38;;;;;;;;;;5031011;28;20132;-85
2022/11/18 10:14:43;;;;;;;29.27;18.65;;;;;;;;;;5010914;28;20115;-85
2022/11/18 10:17:17;;;;;;;26.75;19.27;;;;;;;;;;5036065;28;20044;-85
2022/11/18 10:19:56;;;;;;;26.88;19.30;;;;;;;;;;5034120;28;20445;-84
2022/11/18 10:22:26;;;;;;;24.98;17.92;;;;;;;;;;5025704;28;20500;-86
2022/11/18 10:24:54;;;;;;;21.77;15.60;;;;;;;;;;5033422;28;20045;-85
2022/11/18 10:27:20;;;;;;;26.10;17.63;;;;;;;;;;5031577;28;20107;-86
2022/11/18 10:29:55;;;;;;;27.77;17.38;;;;;;;;;;5013975;28;20060;-86
2022/11/18 10:32:21;;;;;;;28.42;18.85;;;;;;;;;;5032360;28;20597;-86
2022/11/18 10:34:51;;;;;;;26.30;17.40;;;;;;;;;;5031926;28;20412;-87
2022/11/18 10:37:23;;;;;;;26.23;16.50;;;;;;;;;;5030759;28;20045;-86
2022/11/18 10:39:50;;;;;;;24.45;15.52;;;;;;;;;;5032652;28;20052;-86
2022/11/18 10:42:20;;;;;;;23.65;16.00;;;;;;;;;;5030627;28;20053;-86
2022/11/18 10:44:46;;;;;;;25.67;16.73;;;;;;;;;;5030958;28;20045;-86
2022/11/18 10:47:32;;;;;;;23.40;15.52;;;;;;;;;;5031085;28;20442;-85
2022/11/18 10:49:59;;;;;;;23.77;16.75;;;;;;;;;;5006102;28;20073;-85
2022/11/18 10:52:26;;;;;;;25.42;17.08;;;;;;;;;;5026417;28;20126;-85
2022/11/18 10:55:06;;;;;;;26.10;17.33;;;;;;;;;;5010182;28;20117;-84
2022/11/18 10:57:35;;;;;;;26.27;15.95;;;;;;;;;;5023173;28;20110;-84
2022/11/18 11:00:01;;;;;;;24.33;16.05;;;;;;;;;;5013656;28;20041;-85
2022/11/18 11:02:29;;;;;;;24.60;16.38;;;;;;;;;;5011843;28;20061;-85
2022/11/18 11:04:56;;;;;;;26.85;17.42;;;;;;;;;;5014341;28;20078;-85
2022/11/18 11:07:22;;;;;;;26.58;16.92;;;;;;;;;;5014577;28;20058;-84
2022/11/18 11:09:58;;;;;;;27.42;19.23;;;;;;;;;;5032205;28;20052;-86
2022/11/18 11:12:25;;;;;;;28.80;17.77;;;;;;;;;;5031350;28;20511;-86
2022/11/18 11:14:53;;;;;;;33.08;20.13;;;;;;;;;;5032301;28;20053;-85
2022/11/18 11:17:21;;;;;;;30.10;19.92;;;;;;;;;;5028679;28;20048;-86
2022/11/18 11:19:51;;;;;;;32.97;19.67;;;;;;;;;;5031331;28;20045;-86
2022/11/18 11:22:17;;;;;;;30.30;18.60;;;;;;;;;;4997845;28;20049;-88
2022/11/18 11:24:43;;;;;;;29.23;18.45;;;;;;;;;;5025158;28;20041;-84
2022/11/18 11:27:16;;;;;;;30.13;19.38;;;;;;;;;;5028342;28;20037;-86
2022/11/18 11:29:51;;;;;;;30.90;19.20;;;;;;;;;;5013287;28;20080;-86
2022/11/18 11:32:20;;;;;;;31.48;19.75;;;;;;;;;;5031058;28;20489;-87
2022/11/18 11:34:56;;;;;;;29.83;18.08;;;;;;;;;;5015307;28;20056;-87
2022/11/18 11:37:41;;;;;;;37.17;20.42;;;;;;;;;;5014426;28;20045;-86
2022/11/18 11:40:07;;;;;;;31.85;19.35;;;;;;;;;;5030359;28;20125;-87
2022/11/18 11:42:47;;;;;;;35.05;20.05;;;;;;;;;;5031068;28;20056;-87
2022/11/18 11:45:19;;;;;;;32.08;19.17;;;;;;;;;;5012076;28;20381;-86
2022/11/18 11:47:59;;;;;;;32.88;19.33;;;;;;;;;;4999086;28;20045;-86
2022/11/18 11:50:52;;;;;;;31.60;19.30;;;;;;;;;;5033667;28;20051;-87
2022/11/18 11:53:23;;;;;;;30.92;19.27;;;;;;;;;;5027966;28;20045;-86
2022/11/18 11:55:49;;;;;;;;;;;;;;;;;;5013892;28;20096;-86
2022/11/18 11:58:38;;;;;;;25.92;15.48;;;;;;;;;;5034128;28;19921;-86
2022/11/18 12:01:04;;;;;;;27.95;16.58;;;;;;;;;;5003316;28;20045;-85
2022/11/18 12:03:48;;;;;;;26.52;16.55;;;;;;;;;;5030071;28;20060;-87
2022/11/18 12:06:14;;;;;;;27.00;15.80;;;;;;;;;;5031703;28;20080;-85
2022/11/18 12:08:48;;;;;;;28.33;16.75;;;;;;;;;;5039759;28;20041;-86
2022/11/18 12:11:20;;;;;;;24.35;14.90;;;;;;;;;;5031012;28;20042;-86
2022/11/18 12:13:52;;;;;;;29.77;18.60;;;;;;;;;;5032522;28;20040;-87
2022/11/18 12:16:36;;;;;;;25.23;15.30;;;;;;;;;;5032020;28;20084;-87
2022/11/18 12:19:07;;;;;;;29.05;17.65;;;;;;;;;;4995219;28;20053;-86
2022/11/18 12:21:45;;;;;;;29.52;17.55;;;;;;;;;;5002232;28;20464;-87
2022/11/18 12:24:17;;;;;;;30.83;18.77;;;;;;;;;;5016038;28;20057;-86
2022/11/18 12:26:45;;;;;;;31.52;17.60;;;;;;;;;;5010834;28;20053;-86
2022/11/18 12:29:20;;;;;;;32.92;18.42;;;;;;;;;;5015566;28;20114;-85
2022/11/18 12:31:47;;;;;;;30.33;18.40;;;;;;;;;;5031176;28;20044;-85
2022/11/18 12:34:22;;;;;;;28.85;17.55;;;;;;;;;;5027537;28;20132;-85
2022/11/18 12:36:48;;;;;;;27.95;17.00;;;;;;;;;;5026577;28;20120;-86
2022/11/18 12:39:26;;;;;;;32.25;19.38;;;;;;;;;;5034848;28;20072;-86
2022/11/18 12:44:44;;;;;;;26.73;17.17;;;;;;;;;;5018354;28;20053;-85
2022/11/18 12:47:14;;;;;;;27.85;17.42;;;;;;;;;;5016488;28;20091;-85
2022/11/18 12:49:58;;;;;;;28.85;17.90;;;;;;;;;;5036387;28;20081;-86
2022/11/18 12:52:30;;;;;;;28.65;17.35;;;;;;;;;;5033785;28;20037;-85
2022/11/18 12:54:59;;;;;;;27.63;17.67;;;;;;;;;;5035365;28;20041;-86
2022/11/18 12:57:34;;;;;;;28.55;17.40;;;;;;;;;;5017347;28;20057;-86
2022/11/18 13:00:18;;;;;;;26.67;17.60;;;;;;;;;;5036034;28;20477;-86
2022/11/18 13:02:52;;;;;;;30.10;18.90;;;;;;;;;;5017469;28;20104;-86
2022/11/18 13:05:22;;;;;;;33.30;20.67;;;;;;;;;;5013504;28;20041;-87
2022/11/18 13:08:12;;;;;;;30.58;18.25;;;;;;;;;;4992453;28;20045;-87
2022/11/18 13:10:48;;;;;;;27.15;17.40;;;;;;;;;;5004804;28;20110;-86
2022/11/18 13:13:21;;;;;;;27.98;18.40;;;;;;;;;;5016851;28;20057;-88
2022/11/18 13:18:31;;;;;;;27.42;17.25;;;;;;;;;;5032923;28;20053;-89
2022/11/18 13:23:50;;;;;;;27.98;18.65;;;;;;;;;;5018347;28;20100;-88
2022/11/18 13:23:51;;;;;;;36.28;19.65;;;;;;;;;;5033371;28;20132;-87
2022/11/18 13:26:23;;;;;;;32.88;19.05;;;;;;;;;;5014084;28;20053;-88
2022/11/18 13:28:59;;;;;;;30.65;19.20;;;;;;;;;;5039721;28;20059;-88
2022/11/18 13:31:24;;;;;;;34.58;19.20;;;;;;;;;;5027404;28;20168;-87
2022/11/18 13:33:51;;;;;;;33.08;20.92;;;;;;;;;;5024251;28;20089;-86
2022/11/18 13:36:20;;;;;;;29.90;19.50;;;;;;;;;;5046836;28;20046;-86
2022/11/18 13:38:56;;;;;;;31.58;19.90;;;;;;;;;;5022176;28;20508;-87
2022/11/18 13:41:23;;;;;;;29.27;18.52;;;;;;;;;;5024971;28;20057;-88
2022/11/18 13:43:49;;;;;;;34.42;20.75;;;;;;;;;;5025260;28;20124;-88
2022/11/18 13:46:18;;;;;;;34.65;21.08;;;;;;;;;;5024501;28;20413;-88
2022/11/18 13:48:51;;;;;;;31.50;19.15;;;;;;;;;;5038687;28;20053;-86
2022/11/18 13:51:17;;;;;;;28.30;18.02;;;;;;;;;;5005834;28;20045;-86
2022/11/18 13:53:44;;;;;;;26.70;16.92;;;;;;;;;;5021631;28;20056;-87
2022/11/18 13:56:16;;;;;;;26.77;17.42;;;;;;;;;;5048501;28;20041;-87
2022/11/18 13:58:52;;;;;;;25.38;16.02;;;;;;;;;;5043066;28;20141;-87
2022/11/18 14:01:28;;;;;;;25.88;16.38;;;;;;;;;;5020827;28;20057;-87
2022/11/18 14:03:57;;;;;;;22.40;15.77;;;;;;;;;;5042680;28;20038;-83
2022/11/18 14:06:27;;;;;;;26.58;16.92;;;;;;;;;;5018764;28;20060;-86
2022/11/18 14:09:06;;;;;;;21.77;14.80;;;;;;;;;;5039402;28;20125;-85
2022/11/18 14:11:37;;;;;;;22.50;15.57;;;;;;;;;;5038434;28;20544;-87
2022/11/18 14:14:03;;;;;;;22.23;14.98;;;;;;;;;;5012888;28;20034;-87
2022/11/18 14:16:29;;;;;;;25.17;14.90;;;;;;;;;;5035756;28;20041;-88
2022/11/18 14:18:55;;;;;;;18.20;12.50;;;;;;;;;;5030772;28;20063;-86
2022/11/18 14:21:28;;;;;;;19.55;13.00;;;;;;;;;;5045746;28;20045;-87
2022/11/18 14:23:54;;;;;;;20.27;13.68;;;;;;;;;;5014014;28;20096;-86
2022/11/18 14:26:30;;;;;;;19.83;13.15;;;;;;;;;;5020150;28;20413;-86
2022/11/18 14:28:58;;;;;;;18.92;13.13;;;;;;;;;;5020119;28;20049;-86
2022/11/18 14:31:25;;;;;;;19.15;13.25;;;;;;;;;;5019764;28;20056;-86
2022/11/18 14:34:10;;;;;;;20.05;14.07;;;;;;;;;;5012421;28;20049;-86
2022/11/18 14:36:36;;;;;;;23.45;15.10;;;;;;;;;;5027337;28;20124;-86
2022/11/18 14:39:12;;;;;;;22.13;15.40;;;;;;;;;;5037749;28;20041;-85
2022/11/18 14:41:47;;;;;;;21.65;13.88;;;;;;;;;;5036595;28;20061;-85
2022/11/18 14:44:13;;;;;;;23.10;15.88;;;;;;;;;;5016702;28;20069;-85
2022/11/18 14:46:40;;;;;;;26.52;17.17;;;;;;;;;;4999867;28;20049;-85
2022/11/18 14:49:09;;;;;;;26.25;17.38;;;;;;;;;;5033379;28;20052;-86